sensor_id;sensor_type;location;lat;lon;timestamp;pressure;altitude;pressure_sealevel;temperature;humidity
79378;BME280;68959;53.132;17.984;2023-04-09T00:00:38;101994.79;;;6.96;69.20
79378;BME280;68959;53.132;17.984;2023-04-09T00:03:25;101996.48;;;6.93;69.30
79378;BME280;68959;53.132;17.984;2023-04-09T00:05:51;101998.14;;;6.92;69.52
79378;BME280;68959;53.132;17.984;2023-04-09T00:08:19;101990.08;;;6.89;69.39
79378;BME280;68959;53.132;17.984;2023-04-09T00:10:45;101992.52;;;6.90;69.74
79378;BME280;68959;53.132;17.984;2023-04-09T00:13:12;101992.42;;;6.91;69.87
79378;BME280;68959;53.132;17.984;2023-04-09T00:15:39;101992.42;;;6.93;69.85
79378;BME280;68959;53.132;17.984;2023-04-09T00:18:05;101990.46;;;6.96;70.03
79378;BME280;68959;53.132;17.984;2023-04-09T00:20:32;101990.19;;;6.94;70.49
79378;BME280;68959;53.132;17.984;2023-04-09T00:22:58;101987.85;;;6.92;70.60
79378;BME280;68959;53.132;17.984;2023-04-09T00:25:25;101988.05;;;6.88;71.18
79378;BME280;68959;53.132;17.984;2023-04-09T00:27:52;101986.36;;;6.83;71.92
79378;BME280;68959;53.132;17.984;2023-04-09T00:30:18;101979.71;;;6.76;72.06
79378;BME280;68959;53.132;17.984;2023-04-09T00:32:45;101979.73;;;6.72;71.82
79378;BME280;68959;53.132;17.984;2023-04-09T00:35:12;101977.52;;;6.72;71.72
79378;BME280;68959;53.132;17.984;2023-04-09T00:37:39;101984.02;;;6.74;71.72
79378;BME280;68959;53.132;17.984;2023-04-09T00:40:06;101990.02;;;6.78;71.61
79378;BME280;68959;53.132;17.984;2023-04-09T00:42:36;101991.33;;;6.82;71.59
79378;BME280;68959;53.132;17.984;2023-04-09T00:45:04;101995.88;;;6.89;71.43
79378;BME280;68959;53.132;17.984;2023-04-09T00:47:33;101999.41;;;6.92;71.46
79378;BME280;68959;53.132;17.984;2023-04-09T00:50:01;101998.84;;;6.96;71.47
79378;BME280;68959;53.132;17.984;2023-04-09T00:52:28;101998.45;;;6.99;71.50
79378;BME280;68959;53.132;17.984;2023-04-09T00:54:59;101997.89;;;7.00;71.42
79378;BME280;68959;53.132;17.984;2023-04-09T00:57:26;101994.39;;;6.99;71.62
79378;BME280;68959;53.132;17.984;2023-04-09T00:59:54;101996.16;;;6.99;71.47
79378;BME280;68959;53.132;17.984;2023-04-09T01:02:21;102004.27;;;7.01;71.32
79378;BME280;68959;53.132;17.984;2023-04-09T01:04:48;102005.25;;;7.04;71.43
79378;BME280;68959;53.132;17.984;2023-04-09T01:13:06;102009.45;;;7.08;71.36
79378;BME280;68959;53.132;17.984;2023-04-09T01:15:38;102010.31;;;7.08;71.43
79378;BME280;68959;53.132;17.984;2023-04-09T01:18:21;102011.14;;;7.07;71.36
79378;BME280;68959;53.132;17.984;2023-04-09T01:20:57;102012.00;;;7.06;71.40
79378;BME280;68959;53.132;17.984;2023-04-09T01:29:19;102013.92;;;7.02;71.54
79378;BME280;68959;53.132;17.984;2023-04-09T01:31:47;102014.80;;;7.05;71.36
79378;BME280;68959;53.132;17.984;2023-04-09T01:34:15;102011.25;;;7.04;71.58
79378;BME280;68959;53.132;17.984;2023-04-09T01:36:49;102010.45;;;7.00;71.60
79378;BME280;68959;53.132;17.984;2023-04-09T01:39:16;102013.47;;;6.97;71.65
79378;BME280;68959;53.132;17.984;2023-04-09T01:41:43;102015.02;;;6.93;71.82
79378;BME280;68959;53.132;17.984;2023-04-09T01:44:11;102016.55;;;6.89;71.94
79378;BME280;68959;53.132;17.984;2023-04-09T01:46:39;102015.63;;;6.85;72.26
79378;BME280;68959;53.132;17.984;2023-04-09T01:49:08;102017.51;;;6.78;72.19
79378;BME280;68959;53.132;17.984;2023-04-09T01:51:36;102018.20;;;6.73;72.44
79378;BME280;68959;53.132;17.984;2023-04-09T01:54:03;102018.66;;;6.70;72.41
79378;BME280;68959;53.132;17.984;2023-04-09T01:56:59;102016.60;;;6.65;72.61
79378;BME280;68959;53.132;17.984;2023-04-09T01:59:26;102015.91;;;6.59;73.00
79378;BME280;68959;53.132;17.984;2023-04-09T02:01:57;102014.17;;;6.52;72.88
79378;BME280;68959;53.132;17.984;2023-04-09T02:04:34;102020.02;;;6.46;73.24
79378;BME280;68959;53.132;17.984;2023-04-09T02:07:31;102015.68;;;6.41;73.19
79378;BME280;68959;53.132;17.984;2023-04-09T02:10:01;102015.09;;;6.32;73.69
79378;BME280;68959;53.132;17.984;2023-04-09T02:12:30;102013.04;;;6.24;73.73
79378;BME280;68959;53.132;17.984;2023-04-09T02:14:59;102018.23;;;6.20;73.90
79378;BME280;68959;53.132;17.984;2023-04-09T02:17:27;102014.17;;;6.15;74.21
79378;BME280;68959;53.132;17.984;2023-04-09T02:19:54;102015.77;;;6.09;74.14
79378;BME280;68959;53.132;17.984;2023-04-09T02:22:20;102013.10;;;6.06;74.25
79378;BME280;68959;53.132;17.984;2023-04-09T02:24:47;102014.38;;;6.03;74.51
79378;BME280;68959;53.132;17.984;2023-04-09T02:27:14;102010.95;;;5.97;75.15
79378;BME280;68959;53.132;17.984;2023-04-09T02:29:41;102014.88;;;5.90;74.90
79378;BME280;68959;53.132;17.984;2023-04-09T02:32:07;102014.63;;;5.84;74.90
79378;BME280;68959;53.132;17.984;2023-04-09T02:34:34;102014.66;;;5.79;74.86
79378;BME280;68959;53.132;17.984;2023-04-09T02:37:01;102015.88;;;5.79;74.99
79378;BME280;68959;53.132;17.984;2023-04-09T02:39:27;102016.94;;;5.77;75.26
79378;BME280;68959;53.132;17.984;2023-04-09T02:41:54;102018.70;;;5.75;75.29
79378;BME280;68959;53.132;17.984;2023-04-09T02:44:21;102015.41;;;5.75;75.29
79378;BME280;68959;53.132;17.984;2023-04-09T02:46:49;102016.48;;;5.77;75.47
79378;BME280;68959;53.132;17.984;2023-04-09T02:49:17;102020.02;;;5.78;75.53
79378;BME280;68959;53.132;17.984;2023-04-09T02:51:44;102016.80;;;5.76;75.43
79378;BME280;68959;53.132;17.984;2023-04-09T02:54:11;102018.91;;;5.76;75.42
79378;BME280;68959;53.132;17.984;2023-04-09T02:56:37;102012.96;;;5.76;75.56
79378;BME280;68959;53.132;17.984;2023-04-09T02:59:04;102014.86;;;5.74;75.70
79378;BME280;68959;53.132;17.984;2023-04-09T03:01:31;102011.66;;;5.72;75.89
79378;BME280;68959;53.132;17.984;2023-04-09T03:03:59;102012.38;;;5.73;75.73
79378;BME280;68959;53.132;17.984;2023-04-09T03:06:25;102010.90;;;5.75;76.02
79378;BME280;68959;53.132;17.984;2023-04-09T03:08:52;102009.39;;;5.76;75.77
79378;BME280;68959;53.132;17.984;2023-04-09T03:11:19;102008.11;;;5.79;75.76
79378;BME280;68959;53.132;17.984;2023-04-09T03:13:46;102006.27;;;5.81;75.92
79378;BME280;68959;53.132;17.984;2023-04-09T03:16:14;102007.23;;;5.82;76.34
79378;BME280;68959;53.132;17.984;2023-04-09T03:18:40;102009.27;;;5.77;76.26
79378;BME280;68959;53.132;17.984;2023-04-09T03:21:07;102006.20;;;5.76;76.15
79378;BME280;68959;53.132;17.984;2023-04-09T03:23:35;102008.88;;;5.78;76.19
79378;BME280;68959;53.132;17.984;2023-04-09T03:26:04;102004.23;;;5.79;76.86
79378;BME280;68959;53.132;17.984;2023-04-09T03:28:34;101999.46;;;5.76;77.06
79378;BME280;68959;53.132;17.984;2023-04-09T03:31:02;101999.00;;;5.74;76.93
79378;BME280;68959;53.132;17.984;2023-04-09T03:33:30;101993.92;;;5.72;77.29
79378;BME280;68959;53.132;17.984;2023-04-09T03:35:57;101995.90;;;5.70;77.22
79378;BME280;68959;53.132;17.984;2023-04-09T03:38:35;101996.63;;;5.71;77.32
79378;BME280;68959;53.132;17.984;2023-04-09T03:41:06;101997.94;;;5.72;77.37
79378;BME280;68959;53.132;17.984;2023-04-09T03:43:32;101992.86;;;5.72;77.73
79378;BME280;68959;53.132;17.984;2023-04-09T03:45:59;101991.14;;;5.68;77.72
79378;BME280;68959;53.132;17.984;2023-04-09T03:48:26;101989.70;;;5.69;77.63
79378;BME280;68959;53.132;17.984;2023-04-09T03:50:53;101987.25;;;5.70;77.91
79378;BME280;68959;53.132;17.984;2023-04-09T03:53:25;101989.29;;;5.74;77.73
79378;BME280;68959;53.132;17.984;2023-04-09T03:55:53;101989.29;;;5.75;78.33
79378;BME280;68959;53.132;17.984;2023-04-09T03:58:23;101986.50;;;5.73;78.48
79378;BME280;68959;53.132;17.984;2023-04-09T04:00:50;101991.14;;;5.75;78.20
79378;BME280;68959;53.132;17.984;2023-04-09T04:03:32;101989.12;;;5.79;77.96
79378;BME280;68959;53.132;17.984;2023-04-09T04:06:08;101985.91;;;5.82;78.18
79378;BME280;68959;53.132;17.984;2023-04-09T04:08:54;101985.99;;;5.84;78.20
79378;BME280;68959;53.132;17.984;2023-04-09T04:11:23;101990.81;;;5.85;77.85
79378;BME280;68959;53.132;17.984;2023-04-09T04:13:52;101997.30;;;5.90;77.83
79378;BME280;68959;53.132;17.984;2023-04-09T04:16:21;101996.39;;;5.96;77.67
79378;BME280;68959;53.132;17.984;2023-04-09T04:18:48;101997.52;;;6.06;77.38
79378;BME280;68959;53.132;17.984;2023-04-09T04:21:16;101994.23;;;6.12;77.32
79378;BME280;68959;53.132;17.984;2023-04-09T04:23:45;101999.13;;;6.19;77.40
79378;BME280;68959;53.132;17.984;2023-04-09T04:26:22;101999.73;;;6.20;77.42
79378;BME280;68959;53.132;17.984;2023-04-09T04:28:49;101999.09;;;6.22;77.38
79378;BME280;68959;53.132;17.984;2023-04-09T04:31:25;101998.86;;;6.22;77.15
79378;BME280;68959;53.132;17.984;2023-04-09T04:33:52;101997.44;;;6.26;77.09
79378;BME280;68959;53.132;17.984;2023-04-09T04:36:19;101997.55;;;6.30;77.18
79378;BME280;68959;53.132;17.984;2023-04-09T04:38:48;101994.77;;;6.33;77.09
79378;BME280;68959;53.132;17.984;2023-04-09T04:41:19;101996.66;;;6.36;77.05
79378;BME280;68959;53.132;17.984;2023-04-09T04:43:52;101998.23;;;6.41;77.14
79378;BME280;68959;53.132;17.984;2023-04-09T04:46:21;101997.20;;;6.42;77.10
79378;BME280;68959;53.132;17.984;2023-04-09T04:48:48;101996.73;;;6.45;77.15
79378;BME280;68959;53.132;17.984;2023-04-09T04:51:14;101997.63;;;6.46;77.10
79378;BME280;68959;53.132;17.984;2023-04-09T04:53:45;101999.77;;;6.48;77.11
79378;BME280;68959;53.132;17.984;2023-04-09T04:56:14;102000.92;;;6.49;77.16
79378;BME280;68959;53.132;17.984;2023-04-09T04:58:46;102002.41;;;6.51;77.10
79378;BME280;68959;53.132;17.984;2023-04-09T05:01:13;102003.77;;;6.56;77.21
79378;BME280;68959;53.132;17.984;2023-04-09T05:03:40;102001.06;;;6.61;77.03
79378;BME280;68959;53.132;17.984;2023-04-09T05:06:23;101998.29;;;6.68;77.09
79378;BME280;68959;53.132;17.984;2023-04-09T05:08:51;102001.23;;;6.72;76.89
79378;BME280;68959;53.132;17.984;2023-04-09T05:11:18;102005.13;;;6.77;76.98
79378;BME280;68959;53.132;17.984;2023-04-09T05:13:46;102004.61;;;6.81;76.92
79378;BME280;68959;53.132;17.984;2023-04-09T05:16:18;102004.33;;;6.86;76.94
79378;BME280;68959;53.132;17.984;2023-04-09T05:18:47;102005.59;;;6.89;76.64
79378;BME280;68959;53.132;17.984;2023-04-09T05:21:14;102000.39;;;6.90;76.93
79378;BME280;68959;53.132;17.984;2023-04-09T05:23:42;102003.34;;;6.91;76.94
79378;BME280;68959;53.132;17.984;2023-04-09T05:26:08;102002.39;;;6.97;76.69
79378;BME280;68959;53.132;17.984;2023-04-09T05:28:49;102005.42;;;7.02;76.82
79378;BME280;68959;53.132;17.984;2023-04-09T05:31:18;102003.48;;;7.07;76.87
79378;BME280;68959;53.132;17.984;2023-04-09T05:33:52;102003.73;;;7.10;77.03
79378;BME280;68959;53.132;17.984;2023-04-09T05:36:22;102003.06;;;7.10;76.94
79378;BME280;68959;53.132;17.984;2023-04-09T05:38:49;101998.80;;;7.14;77.04
79378;BME280;68959;53.132;17.984;2023-04-09T05:41:15;102003.84;;;7.13;77.54
79378;BME280;68959;53.132;17.984;2023-04-09T05:43:52;102001.91;;;7.11;77.39
79378;BME280;68959;53.132;17.984;2023-04-09T05:46:20;102003.94;;;7.11;77.68
79378;BME280;68959;53.132;17.984;2023-04-09T05:48:49;102004.35;;;7.14;77.60
79378;BME280;68959;53.132;17.984;2023-04-09T05:51:16;102002.24;;;7.14;77.38
79378;BME280;68959;53.132;17.984;2023-04-09T05:53:42;102001.62;;;7.18;77.21
79378;BME280;68959;53.132;17.984;2023-04-09T05:56:14;102000.24;;;7.22;77.35
79378;BME280;68959;53.132;17.984;2023-04-09T05:58:46;102003.77;;;7.24;77.23
79378;BME280;68959;53.132;17.984;2023-04-09T06:01:13;102007.92;;;7.28;77.17
79378;BME280;68959;53.132;17.984;2023-04-09T06:03:40;102009.96;;;7.30;77.07
79378;BME280;68959;53.132;17.984;2023-04-09T06:06:07;102006.06;;;7.33;77.05
79378;BME280;68959;53.132;17.984;2023-04-09T06:08:33;102009.40;;;7.38;76.98
79378;BME280;68959;53.132;17.984;2023-04-09T06:11:00;102015.92;;;7.46;76.82
79378;BME280;68959;53.132;17.984;2023-04-09T06:13:27;102015.98;;;7.53;76.64
79378;BME280;68959;53.132;17.984;2023-04-09T06:15:53;102019.71;;;7.62;76.65
79378;BME280;68959;53.132;17.984;2023-04-09T06:18:20;102021.88;;;7.70;76.32
79378;BME280;68959;53.132;17.984;2023-04-09T06:20:47;102017.95;;;7.74;76.23
79378;BME280;68959;53.132;17.984;2023-04-09T06:23:14;102017.63;;;7.78;76.24
79378;BME280;68959;53.132;17.984;2023-04-09T06:25:41;102019.12;;;7.78;75.90
79378;BME280;68959;53.132;17.984;2023-04-09T06:28:07;102019.34;;;7.82;75.96
79378;BME280;68959;53.132;17.984;2023-04-09T06:30:34;102021.86;;;7.85;75.65
79378;BME280;68959;53.132;17.984;2023-04-09T06:33:02;102026.92;;;7.88;75.68
79378;BME280;68959;53.132;17.984;2023-04-09T06:35:29;102029.02;;;7.91;75.82
79378;BME280;68959;53.132;17.984;2023-04-09T06:37:55;102029.77;;;7.90;75.72
79378;BME280;68959;53.132;17.984;2023-04-09T06:40:22;102032.70;;;7.93;75.72
79378;BME280;68959;53.132;17.984;2023-04-09T06:42:49;102037.77;;;7.99;75.40
79378;BME280;68959;53.132;17.984;2023-04-09T06:45:21;102039.10;;;8.02;75.39
79378;BME280;68959;53.132;17.984;2023-04-09T06:47:47;102042.69;;;8.06;75.47
79378;BME280;68959;53.132;17.984;2023-04-09T06:50:14;102046.55;;;8.04;75.44
79378;BME280;68959;53.132;17.984;2023-04-09T06:52:41;102054.05;;;8.06;75.28
79378;BME280;68959;53.132;17.984;2023-04-09T06:55:08;102057.16;;;8.13;75.31
79378;BME280;68959;53.132;17.984;2023-04-09T06:57:35;102058.92;;;8.20;75.12
79378;BME280;68959;53.132;17.984;2023-04-09T07:00:01;102063.08;;;8.28;75.01
79378;BME280;68959;53.132;17.984;2023-04-09T07:02:28;102060.92;;;8.35;74.82
79378;BME280;68959;53.132;17.984;2023-04-09T07:04:55;102061.45;;;8.43;74.71
79378;BME280;68959;53.132;17.984;2023-04-09T07:07:22;102060.13;;;8.53;74.48
79378;BME280;68959;53.132;17.984;2023-04-09T07:09:49;102063.41;;;8.60;74.23
79378;BME280;68959;53.132;17.984;2023-04-09T07:12:33;102064.85;;;8.64;73.99
79378;BME280;68959;53.132;17.984;2023-04-09T07:15:04;102067.75;;;8.67;73.91
79378;BME280;68959;53.132;17.984;2023-04-09T07:17:32;102068.86;;;8.76;73.62
79378;BME280;68959;53.132;17.984;2023-04-09T07:20:00;102065.08;;;8.87;73.46
79378;BME280;68959;53.132;17.984;2023-04-09T07:22:28;102066.76;;;8.91;73.14
79378;BME280;68959;53.132;17.984;2023-04-09T07:24:55;102069.34;;;8.93;73.05
79378;BME280;68959;53.132;17.984;2023-04-09T07:27:26;102061.80;;;9.02;72.90
79378;BME280;68959;53.132;17.984;2023-04-09T07:29:54;102059.95;;;9.18;72.57
79378;BME280;68959;53.132;17.984;2023-04-09T07:32:23;102060.54;;;9.33;72.30
79378;BME280;68959;53.132;17.984;2023-04-09T07:34:54;102056.82;;;9.46;72.11
79378;BME280;68959;53.132;17.984;2023-04-09T07:37:21;102059.44;;;9.58;71.70
79378;BME280;68959;53.132;17.984;2023-04-09T07:39:48;102058.05;;;9.71;71.62
79378;BME280;68959;53.132;17.984;2023-04-09T07:42:15;102055.19;;;9.83;71.21
79378;BME280;68959;53.132;17.984;2023-04-09T07:44:42;102060.44;;;9.94;70.87
79378;BME280;68959;53.132;17.984;2023-04-09T07:47:09;102059.47;;;10.07;70.62
79378;BME280;68959;53.132;17.984;2023-04-09T07:49:36;102056.05;;;10.21;70.67
79378;BME280;68959;53.132;17.984;2023-04-09T07:52:04;102057.30;;;10.33;70.38
79378;BME280;68959;53.132;17.984;2023-04-09T07:54:31;102055.80;;;10.44;69.86
79378;BME280;68959;53.132;17.984;2023-04-09T07:56:59;102054.57;;;10.50;69.40
79378;BME280;68959;53.132;17.984;2023-04-09T07:59:27;102053.95;;;10.54;69.31
79378;BME280;68959;53.132;17.984;2023-04-09T08:01:55;102057.38;;;10.53;69.37
79378;BME280;68959;53.132;17.984;2023-04-09T08:04:22;102062.59;;;10.56;69.10
79378;BME280;68959;53.132;17.984;2023-04-09T08:06:48;102060.21;;;10.56;68.81
79378;BME280;68959;53.132;17.984;2023-04-09T08:09:17;102062.38;;;10.55;69.38
79378;BME280;68959;53.132;17.984;2023-04-09T08:11:44;102063.62;;;10.60;69.10
79378;BME280;68959;53.132;17.984;2023-04-09T08:14:12;102064.25;;;10.61;68.99
79378;BME280;68959;53.132;17.984;2023-04-09T08:16:41;102060.91;;;10.60;68.55
79378;BME280;68959;53.132;17.984;2023-04-09T08:19:09;102061.94;;;10.52;68.72
79378;BME280;68959;53.132;17.984;2023-04-09T08:21:41;102066.30;;;10.54;68.75
79378;BME280;68959;53.132;17.984;2023-04-09T08:24:09;102064.86;;;10.56;68.61
79378;BME280;68959;53.132;17.984;2023-04-09T08:26:37;102065.32;;;10.51;68.71
79378;BME280;68959;53.132;17.984;2023-04-09T08:29:05;102062.83;;;10.53;69.05
79378;BME280;68959;53.132;17.984;2023-04-09T08:31:32;102068.74;;;10.55;69.01
79378;BME280;68959;53.132;17.984;2023-04-09T08:33:59;102065.30;;;10.63;68.87
79378;BME280;68959;53.132;17.984;2023-04-09T08:36:26;102070.43;;;10.70;68.64
79378;BME280;68959;53.132;17.984;2023-04-09T08:38:53;102069.44;;;10.68;68.32
79378;BME280;68959;53.132;17.984;2023-04-09T08:41:22;102070.83;;;10.70;68.65
79378;BME280;68959;53.132;17.984;2023-04-09T08:43:54;102067.52;;;10.68;68.67
79378;BME280;68959;53.132;17.984;2023-04-09T08:46:22;102067.98;;;10.73;68.56
79378;BME280;68959;53.132;17.984;2023-04-09T08:48:50;102063.77;;;10.70;68.45
79378;BME280;68959;53.132;17.984;2023-04-09T08:51:19;102064.38;;;10.59;68.44
79378;BME280;68959;53.132;17.984;2023-04-09T08:53:57;102062.32;;;10.53;68.81
79378;BME280;68959;53.132;17.984;2023-04-09T08:56:25;102060.73;;;10.52;69.07
79378;BME280;68959;53.132;17.984;2023-04-09T08:58:53;102059.32;;;10.52;68.92
79378;BME280;68959;53.132;17.984;2023-04-09T09:04:06;102063.21;;;10.62;68.66
79378;BME280;68959;53.132;17.984;2023-04-09T09:06:38;102063.83;;;10.57;68.86
79378;BME280;68959;53.132;17.984;2023-04-09T09:11:41;102056.81;;;10.64;68.80
79378;BME280;68959;53.132;17.984;2023-04-09T09:14:12;102059.07;;;10.73;68.57
79378;BME280;68959;53.132;17.984;2023-04-09T09:16:41;102061.79;;;10.76;68.51
79378;BME280;68959;53.132;17.984;2023-04-09T09:22:09;102067.86;;;10.78;68.54
79378;BME280;68959;53.132;17.984;2023-04-09T09:24:47;102072.93;;;10.80;68.80
79378;BME280;68959;53.132;17.984;2023-04-09T09:27:32;102074.83;;;10.79;68.42
79378;BME280;68959;53.132;17.984;2023-04-09T09:30:02;102073.44;;;10.74;68.57
79378;BME280;68959;53.132;17.984;2023-04-09T09:32:34;102072.52;;;10.78;68.53
79378;BME280;68959;53.132;17.984;2023-04-09T09:35:05;102072.34;;;10.84;68.21
79378;BME280;68959;53.132;17.984;2023-04-09T09:37:33;102071.80;;;10.91;68.24
79378;BME280;68959;53.132;17.984;2023-04-09T09:39:59;102071.42;;;10.95;68.03
79378;BME280;68959;53.132;17.984;2023-04-09T09:42:27;102070.02;;;11.01;68.06
79378;BME280;68959;53.132;17.984;2023-04-09T09:44:54;102068.05;;;11.05;67.79
79378;BME280;68959;53.132;17.984;2023-04-09T09:47:21;102067.14;;;11.06;67.66
79378;BME280;68959;53.132;17.984;2023-04-09T09:49:51;102063.88;;;11.03;67.53
79378;BME280;68959;53.132;17.984;2023-04-09T09:52:23;102066.47;;;11.03;67.69
79378;BME280;68959;53.132;17.984;2023-04-09T09:54:52;102060.20;;;11.05;67.74
79378;BME280;68959;53.132;17.984;2023-04-09T09:57:20;102060.33;;;11.16;67.50
79378;BME280;68959;53.132;17.984;2023-04-09T09:59:56;102056.45;;;11.26;67.59
79378;BME280;68959;53.132;17.984;2023-04-09T10:02:27;102061.55;;;11.34;67.28
79378;BME280;68959;53.132;17.984;2023-04-09T10:05:01;102056.35;;;11.31;67.35
79378;BME280;68959;53.132;17.984;2023-04-09T10:07:29;102054.59;;;11.42;67.07
79378;BME280;68959;53.132;17.984;2023-04-09T10:09:57;102056.52;;;11.55;66.87
79378;BME280;68959;53.132;17.984;2023-04-09T10:12:24;102056.04;;;11.69;66.47
79378;BME280;68959;53.132;17.984;2023-04-09T10:14:52;102055.61;;;11.77;66.31
79378;BME280;68959;53.132;17.984;2023-04-09T10:17:20;102054.20;;;11.85;65.87
79378;BME280;68959;53.132;17.984;2023-04-09T10:22:34;102048.09;;;12.11;65.30
79378;BME280;68959;53.132;17.984;2023-04-09T10:25:03;102052.40;;;12.36;64.62
79378;BME280;68959;53.132;17.984;2023-04-09T10:27:30;102049.47;;;12.66;63.82
79378;BME280;68959;53.132;17.984;2023-04-09T10:29:56;102051.27;;;12.97;63.21
79378;BME280;68959;53.132;17.984;2023-04-09T10:32:25;102049.24;;;13.29;62.60
79378;BME280;68959;53.132;17.984;2023-04-09T10:34:57;102040.75;;;13.74;61.25
79378;BME280;68959;53.132;17.984;2023-04-09T10:37:26;102037.81;;;14.12;59.08
79378;BME280;68959;53.132;17.984;2023-04-09T10:39:53;102037.70;;;14.46;58.54
79378;BME280;68959;53.132;17.984;2023-04-09T10:42:23;102035.80;;;14.76;58.40
79378;BME280;68959;53.132;17.984;2023-04-09T10:45:16;102036.33;;;15.13;58.04
79378;BME280;68959;53.132;17.984;2023-04-09T10:47:49;102034.45;;;15.62;57.07
79378;BME280;68959;53.132;17.984;2023-04-09T10:50:25;102034.24;;;16.17;56.12
79378;BME280;68959;53.132;17.984;2023-04-09T10:52:54;102034.61;;;16.66;54.99
79378;BME280;68959;53.132;17.984;2023-04-09T10:55:47;102025.16;;;17.00;53.34
79378;BME280;68959;53.132;17.984;2023-04-09T10:58:15;102030.08;;;17.22;52.22
79378;BME280;68959;53.132;17.984;2023-04-09T11:00:44;102024.54;;;17.38;51.36
79378;BME280;68959;53.132;17.984;2023-04-09T11:03:25;102026.80;;;17.49;50.14
79378;BME280;68959;53.132;17.984;2023-04-09T11:06:02;102028.35;;;17.68;51.16
79378;BME280;68959;53.132;17.984;2023-04-09T11:08:32;102024.34;;;18.10;50.47
79378;BME280;68959;53.132;17.984;2023-04-09T11:10:59;102021.41;;;18.41;49.36
79378;BME280;68959;53.132;17.984;2023-04-09T11:13:28;102021.44;;;18.72;48.93
79378;BME280;68959;53.132;17.984;2023-04-09T11:15:55;102021.15;;;19.16;48.70
79378;BME280;68959;53.132;17.984;2023-04-09T11:18:27;102020.68;;;19.51;47.37
79378;BME280;68959;53.132;17.984;2023-04-09T11:20:59;102018.64;;;19.66;46.50
79378;BME280;68959;53.132;17.984;2023-04-09T11:23:27;102017.25;;;19.88;46.54
79378;BME280;68959;53.132;17.984;2023-04-09T11:25:54;102014.89;;;20.04;46.19
79378;BME280;68959;53.132;17.984;2023-04-09T11:28:22;102020.23;;;20.25;45.55
79378;BME280;68959;53.132;17.984;2023-04-09T11:30:50;102017.86;;;20.54;44.87
79378;BME280;68959;53.132;17.984;2023-04-09T11:33:16;102015.95;;;20.79;44.63
79378;BME280;68959;53.132;17.984;2023-04-09T11:35:43;102010.85;;;21.17;43.86
79378;BME280;68959;53.132;17.984;2023-04-09T11:38:11;102010.63;;;21.60;42.88
79378;BME280;68959;53.132;17.984;2023-04-09T11:40:42;102010.41;;;21.83;42.27
79378;BME280;68959;53.132;17.984;2023-04-09T11:43:14;102006.80;;;22.14;41.83
79378;BME280;68959;53.132;17.984;2023-04-09T11:45:46;102002.85;;;22.51;40.43
79378;BME280;68959;53.132;17.984;2023-04-09T11:48:13;102000.36;;;22.90;39.58
79378;BME280;68959;53.132;17.984;2023-04-09T11:50:41;101995.77;;;23.32;38.55
79378;BME280;68959;53.132;17.984;2023-04-09T11:53:16;102000.27;;;24.01;37.88
79378;BME280;68959;53.132;17.984;2023-04-09T11:55:46;102000.64;;;24.73;36.60
79378;BME280;68959;53.132;17.984;2023-04-09T11:58:13;101995.34;;;25.20;35.65
79378;BME280;68959;53.132;17.984;2023-04-09T12:00:40;101994.42;;;25.79;34.50
79378;BME280;68959;53.132;17.984;2023-04-09T12:03:06;101987.56;;;26.18;32.90
79378;BME280;68959;53.132;17.984;2023-04-09T12:05:35;101985.77;;;26.26;32.71
79378;BME280;68959;53.132;17.984;2023-04-09T12:08:05;101986.34;;;26.61;31.91
79378;BME280;68959;53.132;17.984;2023-04-09T12:10:35;101983.64;;;27.14;30.98
79378;BME280;68959;53.132;17.984;2023-04-09T12:13:06;101977.44;;;27.44;30.18
79378;BME280;68959;53.132;17.984;2023-04-09T12:15:34;101977.46;;;27.90;28.57
79378;BME280;68959;53.132;17.984;2023-04-09T12:18:02;101972.98;;;28.13;27.77
79378;BME280;68959;53.132;17.984;2023-04-09T12:20:33;101975.38;;;28.61;27.59
79378;BME280;68959;53.132;17.984;2023-04-09T12:23:02;101973.97;;;29.26;26.87
79378;BME280;68959;53.132;17.984;2023-04-09T12:25:30;101973.07;;;30.30;25.05
79378;BME280;68959;53.132;17.984;2023-04-09T12:27:57;101968.39;;;31.45;25.10
79378;BME280;68959;53.132;17.984;2023-04-09T12:30:24;101964.66;;;32.43;22.54
79378;BME280;68959;53.132;17.984;2023-04-09T12:32:52;101962.45;;;32.43;22.72
79378;BME280;68959;53.132;17.984;2023-04-09T12:35:20;101957.75;;;32.12;23.02
79378;BME280;68959;53.132;17.984;2023-04-09T12:37:48;101960.80;;;32.85;21.51
79378;BME280;68959;53.132;17.984;2023-04-09T12:40:15;101958.59;;;33.58;21.02
79378;BME280;68959;53.132;17.984;2023-04-09T12:42:44;101952.73;;;33.87;19.40
79378;BME280;68959;53.132;17.984;2023-04-09T12:45:14;101947.14;;;34.17;19.82
79378;BME280;68959;53.132;17.984;2023-04-09T12:47:42;101949.45;;;34.64;19.54
79378;BME280;68959;53.132;17.984;2023-04-09T12:50:10;101941.81;;;35.19;19.04
79378;BME280;68959;53.132;17.984;2023-04-09T12:52:37;101939.36;;;35.33;18.40
79378;BME280;68959;53.132;17.984;2023-04-09T12:55:05;101939.98;;;35.61;18.24
79378;BME280;68959;53.132;17.984;2023-04-09T12:57:32;101940.88;;;35.67;17.49
79378;BME280;68959;53.132;17.984;2023-04-09T12:59:59;101937.03;;;35.63;17.40
79378;BME280;68959;53.132;17.984;2023-04-09T13:02:25;101929.91;;;35.82;17.34
79378;BME280;68959;53.132;17.984;2023-04-09T13:04:52;101926.45;;;36.07;16.54
79378;BME280;68959;53.132;17.984;2023-04-09T13:07:19;101924.00;;;36.00;16.82
79378;BME280;68959;53.132;17.984;2023-04-09T13:09:45;101923.40;;;36.09;16.63
79378;BME280;68959;53.132;17.984;2023-04-09T13:12:13;101917.98;;;35.84;16.42
79378;BME280;68959;53.132;17.984;2023-04-09T13:14:45;101923.14;;;35.59;16.82
79378;BME280;68959;53.132;17.984;2023-04-09T13:17:13;101922.83;;;35.39;16.83